Aérodrome :
LOGIN :

S'inscrire | Disclaimer

   EN    FR    IT 

 










Légende :    VFR   VFR Marginal   IFR   IFR Intensif   IFR Très Intensif
Visi : 
Plafond : 
>= 8 km
>= 3000ft
5 à 8 km
1000 à 3000 ft
1500m à 5 km
500 à 1000 ft
800 à 1500m
200 à 500 ft
< 800m
< 200 ft
Symboles :   Orages  Brouillard  Fortes neiges  Fortes précipitations  Vent > 20 kt
SIGMETs :   Divers  Orages  Givrage  Turbulence  Onde Orograph.  Cendres Volcan.







- Altitude de l'aérodrome : 16 ft
- Code IATA : EAS


LESO - San Sebastian Fuenterrabia

DERNIER METAR :
  • 240800Z VRB01KT CAVOK 21/14 Q1018

METARs EXPIRÉS :
  • 240730Z VRB02KT CAVOK 19/14 Q1018
  • 240700Z VRB02KT CAVOK 18/14 Q1018
  • 240630Z 16003KT 120V200 CAVOK 17/14 Q1018
  • 240600Z 18003KT 150V220 CAVOK 16/13 Q1018
  • 240530Z 18004KT CAVOK 15/13 Q1018

TAF TAF LESO
Valide du 24 à 06h jusqu'au 25 à 06h UTC


240500Z 2406/2506 VRB04KT CAVOK TX24/2415Z TN15/2406Z
TEMPO 2411/2418 01010KT
Pas de NOTAMs connus pour ce terrain.
2 SIGMETs publiés pour la FIR Madrid (LECM) :
 
Orages noyés dans la masse
LECM SIGMET 3 VALID 240800/241000 LEVA
LECM MADRID FIR/UIR EMBD TS OBS AT 0742Z WI N4332 W01113 - N4459 W011 - N4458 W01250 - N4336 W01252 - N4332 W01113 TOP FL420 MOV NW 5KT NC=
Orages noyés dans la masse
LECM SIGMET 2 VALID 240538/240800 LEVA
LECM MADRID FIR/UIR EMBD TS OBS AT 0538Z WI N4310 W01120 - N4320 W01250 - N4420 W01240 - N4420 W01040 - N4310 W01120 TOP FL420 MOV NW 10KT NC=



MET'MAP, la Météo Aéronautique d'un coup d'oeil ! - Copyright ORBIFLY Décembre 2007 - Disclaimer

ORBIFLY MET'MAP TEAM :

Programmation & Développement : Alexandra Zaïnal
Conception & Développement : Baudouin d'Aumeries
Co-Programmation & Développement : Marc-Olivier Méhu
Soutien technique & logistique : Manuel Goepfert

Contact : metmap@orbifly.com




SOURCES & CREDITS :

   NOAA